sensor_id;sensor_type;location;lat;lon;timestamp;P1;durP1;ratioP1;P2;durP2;ratioP2
17363;SDS011;8799;43.594;13.526;2023-05-23T00:00:45;11.20;;;8.13;;
17363;SDS011;8799;43.594;13.526;2023-05-23T00:03:15;9.30;;;7.20;;
17363;SDS011;8799;43.594;13.526;2023-05-23T00:05:46;10.10;;;6.87;;
17363;SDS011;8799;43.594;13.526;2023-05-23T00:08:15;10.33;;;7.40;;
17363;SDS011;8799;43.594;13.526;2023-05-23T00:10:43;9.90;;;7.33;;
17363;SDS011;8799;43.594;13.526;2023-05-23T00:13:11;10.10;;;6.70;;
17363;SDS011;8799;43.594;13.526;2023-05-23T00:15:39;8.90;;;6.40;;
17363;SDS011;8799;43.594;13.526;2023-05-23T00:18:08;9.33;;;6.43;;
17363;SDS011;8799;43.594;13.526;2023-05-23T00:20:39;10.00;;;7.03;;
17363;SDS011;8799;43.594;13.526;2023-05-23T00:23:07;11.53;;;6.33;;
17363;SDS011;8799;43.594;13.526;2023-05-23T00:25:35;10.00;;;7.03;;
17363;SDS011;8799;43.594;13.526;2023-05-23T00:28:05;12.23;;;6.83;;
17363;SDS011;8799;43.594;13.526;2023-05-23T00:30:33;8.37;;;5.93;;
17363;SDS011;8799;43.594;13.526;2023-05-23T00:33:00;9.13;;;6.90;;
17363;SDS011;8799;43.594;13.526;2023-05-23T00:35:28;10.70;;;7.07;;
17363;SDS011;8799;43.594;13.526;2023-05-23T00:37:58;9.57;;;6.87;;
17363;SDS011;8799;43.594;13.526;2023-05-23T00:40:26;10.43;;;7.00;;
17363;SDS011;8799;43.594;13.526;2023-05-23T00:42:54;10.87;;;6.93;;
17363;SDS011;8799;43.594;13.526;2023-05-23T00:45:22;8.93;;;6.27;;
17363;SDS011;8799;43.594;13.526;2023-05-23T00:47:50;11.17;;;6.47;;
17363;SDS011;8799;43.594;13.526;2023-05-23T00:50:18;10.73;;;7.17;;
17363;SDS011;8799;43.594;13.526;2023-05-23T00:52:47;8.70;;;6.40;;
17363;SDS011;8799;43.594;13.526;2023-05-23T00:55:17;11.87;;;7.10;;
17363;SDS011;8799;43.594;13.526;2023-05-23T00:57:45;9.07;;;6.70;;
17363;SDS011;8799;43.594;13.526;2023-05-23T01:00:14;10.03;;;6.77;;
17363;SDS011;8799;43.594;13.526;2023-05-23T01:02:44;9.80;;;6.73;;
17363;SDS011;8799;43.594;13.526;2023-05-23T01:05:15;9.27;;;7.27;;
17363;SDS011;8799;43.594;13.526;2023-05-23T01:07:44;9.73;;;6.60;;
17363;SDS011;8799;43.594;13.526;2023-05-23T01:10:12;9.07;;;6.43;;
17363;SDS011;8799;43.594;13.526;2023-05-23T01:12:44;11.07;;;7.07;;
17363;SDS011;8799;43.594;13.526;2023-05-23T01:15:23;8.50;;;5.90;;
17363;SDS011;8799;43.594;13.526;2023-05-23T01:18:00;9.30;;;6.87;;
17363;SDS011;8799;43.594;13.526;2023-05-23T01:20:33;9.83;;;6.83;;
17363;SDS011;8799;43.594;13.526;2023-05-23T01:28:54;10.13;;;6.67;;
17363;SDS011;8799;43.594;13.526;2023-05-23T01:31:29;9.13;;;6.80;;
17363;SDS011;8799;43.594;13.526;2023-05-23T01:34:01;10.43;;;6.93;;
17363;SDS011;8799;43.594;13.526;2023-05-23T01:36:33;11.00;;;6.97;;
17363;SDS011;8799;43.594;13.526;2023-05-23T01:39:06;10.13;;;6.97;;
17363;SDS011;8799;43.594;13.526;2023-05-23T01:41:33;9.60;;;6.83;;
17363;SDS011;8799;43.594;13.526;2023-05-23T01:44:03;11.77;;;6.57;;
17363;SDS011;8799;43.594;13.526;2023-05-23T01:46:31;10.10;;;6.80;;
17363;SDS011;8799;43.594;13.526;2023-05-23T01:49:01;12.70;;;6.93;;
17363;SDS011;8799;43.594;13.526;2023-05-23T01:51:30;9.87;;;7.47;;
17363;SDS011;8799;43.594;13.526;2023-05-23T01:53:59;8.70;;;6.10;;
17363;SDS011;8799;43.594;13.526;2023-05-23T01:56:27;11.37;;;7.03;;
17363;SDS011;8799;43.594;13.526;2023-05-23T01:58:55;8.63;;;6.27;;
17363;SDS011;8799;43.594;13.526;2023-05-23T02:01:25;8.60;;;6.47;;
17363;SDS011;8799;43.594;13.526;2023-05-23T02:03:53;9.33;;;6.27;;
17363;SDS011;8799;43.594;13.526;2023-05-23T02:06:21;9.40;;;6.97;;
17363;SDS011;8799;43.594;13.526;2023-05-23T02:08:49;19.60;;;6.73;;
17363;SDS011;8799;43.594;13.526;2023-05-23T02:11:18;9.23;;;6.30;;
17363;SDS011;8799;43.594;13.526;2023-05-23T02:13:46;9.60;;;6.50;;
17363;SDS011;8799;43.594;13.526;2023-05-23T02:16:14;9.73;;;6.80;;
17363;SDS011;8799;43.594;13.526;2023-05-23T02:18:44;9.50;;;6.63;;
17363;SDS011;8799;43.594;13.526;2023-05-23T02:21:13;14.47;;;7.17;;
17363;SDS011;8799;43.594;13.526;2023-05-23T02:23:41;8.83;;;6.37;;
17363;SDS011;8799;43.594;13.526;2023-05-23T02:26:09;9.13;;;7.00;;
17363;SDS011;8799;43.594;13.526;2023-05-23T02:28:37;10.70;;;6.90;;
17363;SDS011;8799;43.594;13.526;2023-05-23T02:31:05;10.80;;;7.00;;
17363;SDS011;8799;43.594;13.526;2023-05-23T02:33:34;8.70;;;6.30;;
17363;SDS011;8799;43.594;13.526;2023-05-23T02:36:07;11.30;;;7.20;;
17363;SDS011;8799;43.594;13.526;2023-05-23T02:38:36;11.10;;;6.83;;
17363;SDS011;8799;43.594;13.526;2023-05-23T02:41:03;9.50;;;6.70;;
17363;SDS011;8799;43.594;13.526;2023-05-23T02:43:33;8.40;;;6.20;;
17363;SDS011;8799;43.594;13.526;2023-05-23T02:46:01;10.90;;;6.00;;
17363;SDS011;8799;43.594;13.526;2023-05-23T02:48:28;8.33;;;6.57;;
17363;SDS011;8799;43.594;13.526;2023-05-23T02:50:56;9.37;;;6.17;;
17363;SDS011;8799;43.594;13.526;2023-05-23T02:53:26;9.83;;;6.50;;
17363;SDS011;8799;43.594;13.526;2023-05-23T02:55:54;8.47;;;6.43;;
17363;SDS011;8799;43.594;13.526;2023-05-23T02:58:22;7.87;;;6.10;;
17363;SDS011;8799;43.594;13.526;2023-05-23T03:00:50;9.53;;;6.33;;
17363;SDS011;8799;43.594;13.526;2023-05-23T03:03:19;10.07;;;6.33;;
17363;SDS011;8799;43.594;13.526;2023-05-23T03:05:47;9.50;;;6.40;;
17363;SDS011;8799;43.594;13.526;2023-05-23T03:08:15;9.20;;;6.57;;
17363;SDS011;8799;43.594;13.526;2023-05-23T03:10:44;7.67;;;6.00;;
17363;SDS011;8799;43.594;13.526;2023-05-23T03:13:12;9.80;;;7.10;;
17363;SDS011;8799;43.594;13.526;2023-05-23T03:15:41;11.67;;;7.50;;
17363;SDS011;8799;43.594;13.526;2023-05-23T03:18:08;8.17;;;6.33;;
17363;SDS011;8799;43.594;13.526;2023-05-23T03:20:37;8.47;;;6.57;;
17363;SDS011;8799;43.594;13.526;2023-05-23T03:23:06;9.37;;;6.77;;
17363;SDS011;8799;43.594;13.526;2023-05-23T03:25:34;9.10;;;6.63;;
17363;SDS011;8799;43.594;13.526;2023-05-23T03:28:05;9.20;;;6.67;;
17363;SDS011;8799;43.594;13.526;2023-05-23T03:30:33;9.00;;;6.20;;
17363;SDS011;8799;43.594;13.526;2023-05-23T03:33:01;8.53;;;6.57;;
17363;SDS011;8799;43.594;13.526;2023-05-23T03:35:29;9.30;;;6.57;;
17363;SDS011;8799;43.594;13.526;2023-05-23T03:37:57;8.87;;;6.50;;
17363;SDS011;8799;43.594;13.526;2023-05-23T03:40:25;8.87;;;6.43;;
17363;SDS011;8799;43.594;13.526;2023-05-23T03:43:00;9.47;;;6.63;;
17363;SDS011;8799;43.594;13.526;2023-05-23T03:45:30;9.17;;;6.43;;
17363;SDS011;8799;43.594;13.526;2023-05-23T03:47:59;8.67;;;5.80;;
17363;SDS011;8799;43.594;13.526;2023-05-23T03:50:27;9.30;;;6.43;;
17363;SDS011;8799;43.594;13.526;2023-05-23T03:52:55;9.50;;;6.60;;
17363;SDS011;8799;43.594;13.526;2023-05-23T03:55:23;7.93;;;5.97;;
17363;SDS011;8799;43.594;13.526;2023-05-23T03:57:51;8.30;;;6.17;;
17363;SDS011;8799;43.594;13.526;2023-05-23T04:00:19;9.60;;;6.10;;
17363;SDS011;8799;43.594;13.526;2023-05-23T04:02:48;9.97;;;6.33;;
17363;SDS011;8799;43.594;13.526;2023-05-23T04:05:17;10.47;;;6.70;;
17363;SDS011;8799;43.594;13.526;2023-05-23T04:07:44;8.70;;;6.57;;
17363;SDS011;8799;43.594;13.526;2023-05-23T04:10:12;7.97;;;6.23;;
17363;SDS011;8799;43.594;13.526;2023-05-23T04:12:40;9.53;;;6.00;;
17363;SDS011;8799;43.594;13.526;2023-05-23T04:15:08;8.87;;;6.37;;
17363;SDS011;8799;43.594;13.526;2023-05-23T04:17:36;8.23;;;6.00;;
17363;SDS011;8799;43.594;13.526;2023-05-23T04:20:07;12.17;;;6.30;;
17363;SDS011;8799;43.594;13.526;2023-05-23T04:22:35;9.17;;;6.63;;
17363;SDS011;8799;43.594;13.526;2023-05-23T04:25:04;9.37;;;6.30;;
17363;SDS011;8799;43.594;13.526;2023-05-23T04:27:32;9.77;;;6.83;;
17363;SDS011;8799;43.594;13.526;2023-05-23T04:30:00;7.90;;;6.07;;
17363;SDS011;8799;43.594;13.526;2023-05-23T04:32:28;11.87;;;6.80;;
17363;SDS011;8799;43.594;13.526;2023-05-23T04:34:57;10.10;;;6.60;;
17363;SDS011;8799;43.594;13.526;2023-05-23T04:37:28;9.53;;;6.67;;
17363;SDS011;8799;43.594;13.526;2023-05-23T04:39:57;9.63;;;7.27;;
17363;SDS011;8799;43.594;13.526;2023-05-23T04:42:25;8.20;;;7.03;;
17363;SDS011;8799;43.594;13.526;2023-05-23T04:44:53;8.00;;;6.57;;
17363;SDS011;8799;43.594;13.526;2023-05-23T04:47:22;10.20;;;7.37;;
17363;SDS011;8799;43.594;13.526;2023-05-23T04:49:52;9.13;;;6.63;;
17363;SDS011;8799;43.594;13.526;2023-05-23T04:52:21;10.87;;;7.40;;
17363;SDS011;8799;43.594;13.526;2023-05-23T04:54:51;10.73;;;8.10;;
17363;SDS011;8799;43.594;13.526;2023-05-23T04:57:20;12.23;;;7.63;;
17363;SDS011;8799;43.594;13.526;2023-05-23T04:59:48;11.13;;;7.53;;
17363;SDS011;8799;43.594;13.526;2023-05-23T05:02:16;13.33;;;7.63;;
17363;SDS011;8799;43.594;13.526;2023-05-23T05:04:45;10.63;;;7.60;;
17363;SDS011;8799;43.594;13.526;2023-05-23T05:07:12;11.57;;;7.43;;
17363;SDS011;8799;43.594;13.526;2023-05-23T05:09:40;12.07;;;6.77;;
17363;SDS011;8799;43.594;13.526;2023-05-23T05:12:09;12.23;;;6.53;;
17363;SDS011;8799;43.594;13.526;2023-05-23T05:14:37;10.23;;;6.80;;
17363;SDS011;8799;43.594;13.526;2023-05-23T05:17:05;9.50;;;6.07;;
17363;SDS011;8799;43.594;13.526;2023-05-23T05:19:33;9.50;;;6.00;;
17363;SDS011;8799;43.594;13.526;2023-05-23T05:22:02;8.93;;;5.87;;
17363;SDS011;8799;43.594;13.526;2023-05-23T05:24:30;16.70;;;6.33;;
17363;SDS011;8799;43.594;13.526;2023-05-23T05:26:59;13.23;;;6.10;;
17363;SDS011;8799;43.594;13.526;2023-05-23T05:29:29;10.03;;;6.27;;
17363;SDS011;8799;43.594;13.526;2023-05-23T05:31:57;10.10;;;6.27;;
17363;SDS011;8799;43.594;13.526;2023-05-23T05:34:25;9.07;;;5.50;;
17363;SDS011;8799;43.594;13.526;2023-05-23T05:36:53;9.38;;;6.45;;
17363;SDS011;8799;43.594;13.526;2023-05-23T05:39:22;9.20;;;6.20;;
17363;SDS011;8799;43.594;13.526;2023-05-23T05:41:51;9.20;;;6.23;;
17363;SDS011;8799;43.594;13.526;2023-05-23T05:44:20;9.57;;;6.77;;
17363;SDS011;8799;43.594;13.526;2023-05-23T05:46:50;14.80;;;7.00;;
17363;SDS011;8799;43.594;13.526;2023-05-23T05:49:18;11.60;;;6.23;;
17363;SDS011;8799;43.594;13.526;2023-05-23T05:51:46;10.47;;;6.17;;
17363;SDS011;8799;43.594;13.526;2023-05-23T05:54:18;9.40;;;6.03;;
17363;SDS011;8799;43.594;13.526;2023-05-23T05:56:47;9.80;;;6.40;;
17363;SDS011;8799;43.594;13.526;2023-05-23T05:59:14;8.73;;;6.30;;
17363;SDS011;8799;43.594;13.526;2023-05-23T06:01:42;9.60;;;5.77;;
17363;SDS011;8799;43.594;13.526;2023-05-23T06:04:12;10.30;;;6.30;;
17363;SDS011;8799;43.594;13.526;2023-05-23T06:06:41;10.50;;;6.10;;
17363;SDS011;8799;43.594;13.526;2023-05-23T06:09:09;8.40;;;5.80;;
17363;SDS011;8799;43.594;13.526;2023-05-23T06:11:37;10.23;;;6.30;;
17363;SDS011;8799;43.594;13.526;2023-05-23T06:14:05;12.03;;;6.27;;
17363;SDS011;8799;43.594;13.526;2023-05-23T06:16:33;8.20;;;6.10;;
17363;SDS011;8799;43.594;13.526;2023-05-23T06:19:01;10.10;;;6.40;;
17363;SDS011;8799;43.594;13.526;2023-05-23T06:21:31;10.87;;;5.63;;
17363;SDS011;8799;43.594;13.526;2023-05-23T06:23:59;10.43;;;6.73;;
17363;SDS011;8799;43.594;13.526;2023-05-23T06:26:27;9.67;;;5.93;;
17363;SDS011;8799;43.594;13.526;2023-05-23T06:28:55;14.20;;;6.17;;
17363;SDS011;8799;43.594;13.526;2023-05-23T06:31:22;7.93;;;5.77;;
17363;SDS011;8799;43.594;13.526;2023-05-23T06:33:50;10.13;;;5.97;;
17363;SDS011;8799;43.594;13.526;2023-05-23T06:36:18;9.20;;;5.87;;
17363;SDS011;8799;43.594;13.526;2023-05-23T06:38:48;11.93;;;5.63;;
17363;SDS011;8799;43.594;13.526;2023-05-23T06:41:16;9.83;;;5.93;;
17363;SDS011;8799;43.594;13.526;2023-05-23T06:43:44;11.13;;;6.10;;
17363;SDS011;8799;43.594;13.526;2023-05-23T06:46:12;11.73;;;6.10;;
17363;SDS011;8799;43.594;13.526;2023-05-23T06:48:40;8.00;;;5.70;;
17363;SDS011;8799;43.594;13.526;2023-05-23T06:51:08;11.73;;;6.30;;
17363;SDS011;8799;43.594;13.526;2023-05-23T06:53:36;10.17;;;5.20;;
17363;SDS011;8799;43.594;13.526;2023-05-23T06:56:06;8.80;;;5.23;;
17363;SDS011;8799;43.594;13.526;2023-05-23T06:58:34;8.20;;;6.00;;
17363;SDS011;8799;43.594;13.526;2023-05-23T07:01:02;8.73;;;5.63;;
17363;SDS011;8799;43.594;13.526;2023-05-23T07:03:30;9.47;;;5.93;;
17363;SDS011;8799;43.594;13.526;2023-05-23T07:05:58;8.53;;;5.37;;
17363;SDS011;8799;43.594;13.526;2023-05-23T07:08:25;8.23;;;5.30;;
17363;SDS011;8799;43.594;13.526;2023-05-23T07:10:54;8.40;;;5.87;;
17363;SDS011;8799;43.594;13.526;2023-05-23T07:13:23;7.43;;;5.67;;
17363;SDS011;8799;43.594;13.526;2023-05-23T07:15:51;9.07;;;5.77;;
17363;SDS011;8799;43.594;13.526;2023-05-23T07:18:19;9.03;;;5.77;;
17363;SDS011;8799;43.594;13.526;2023-05-23T07:20:48;8.27;;;5.73;;
17363;SDS011;8799;43.594;13.526;2023-05-23T07:23:16;8.77;;;5.77;;
17363;SDS011;8799;43.594;13.526;2023-05-23T07:25:44;10.97;;;6.03;;
17363;SDS011;8799;43.594;13.526;2023-05-23T07:28:12;8.67;;;5.53;;
17363;SDS011;8799;43.594;13.526;2023-05-23T07:30:42;8.40;;;5.57;;
17363;SDS011;8799;43.594;13.526;2023-05-23T07:33:09;9.03;;;6.10;;
17363;SDS011;8799;43.594;13.526;2023-05-23T07:35:37;8.03;;;5.43;;
17363;SDS011;8799;43.594;13.526;2023-05-23T07:38:05;10.53;;;5.57;;
17363;SDS011;8799;43.594;13.526;2023-05-23T07:40:33;10.17;;;5.77;;
17363;SDS011;8799;43.594;13.526;2023-05-23T07:43:02;7.30;;;5.43;;
17363;SDS011;8799;43.594;13.526;2023-05-23T07:45:29;9.73;;;5.60;;
17363;SDS011;8799;43.594;13.526;2023-05-23T07:47:59;7.10;;;5.37;;
17363;SDS011;8799;43.594;13.526;2023-05-23T07:50:26;8.37;;;5.50;;
17363;SDS011;8799;43.594;13.526;2023-05-23T07:52:55;7.07;;;5.27;;
17363;SDS011;8799;43.594;13.526;2023-05-23T07:55:23;9.30;;;5.73;;
17363;SDS011;8799;43.594;13.526;2023-05-23T07:57:52;9.20;;;5.80;;
17363;SDS011;8799;43.594;13.526;2023-05-23T08:00:20;9.73;;;5.27;;
17363;SDS011;8799;43.594;13.526;2023-05-23T08:02:48;7.17;;;5.40;;
17363;SDS011;8799;43.594;13.526;2023-05-23T08:05:18;8.33;;;5.53;;
17363;SDS011;8799;43.594;13.526;2023-05-23T08:07:47;8.60;;;5.67;;
17363;SDS011;8799;43.594;13.526;2023-05-23T08:10:14;9.67;;;5.43;;
17363;SDS011;8799;43.594;13.526;2023-05-23T08:12:43;8.70;;;5.27;;
17363;SDS011;8799;43.594;13.526;2023-05-23T08:15:10;8.80;;;5.80;;
17363;SDS011;8799;43.594;13.526;2023-05-23T08:17:38;9.00;;;5.13;;
17363;SDS011;8799;43.594;13.526;2023-05-23T08:20:06;10.67;;;5.83;;
17363;SDS011;8799;43.594;13.526;2023-05-23T08:22:37;12.00;;;5.57;;
17363;SDS011;8799;43.594;13.526;2023-05-23T08:25:05;10.07;;;6.20;;
17363;SDS011;8799;43.594;13.526;2023-05-23T08:27:34;8.27;;;5.77;;
17363;SDS011;8799;43.594;13.526;2023-05-23T08:30:02;8.20;;;5.30;;
17363;SDS011;8799;43.594;13.526;2023-05-23T08:32:30;8.87;;;5.47;;
17363;SDS011;8799;43.594;13.526;2023-05-23T08:34:58;8.60;;;5.70;;
17363;SDS011;8799;43.594;13.526;2023-05-23T08:37:25;10.83;;;5.67;;
17363;SDS011;8799;43.594;13.526;2023-05-23T08:39:54;8.97;;;5.50;;
17363;SDS011;8799;43.594;13.526;2023-05-23T08:42:23;7.20;;;5.40;;
17363;SDS011;8799;43.594;13.526;2023-05-23T08:44:51;8.33;;;5.53;;
17363;SDS011;8799;43.594;13.526;2023-05-23T08:47:19;9.30;;;6.43;;
17363;SDS011;8799;43.594;13.526;2023-05-23T08:49:49;8.40;;;5.50;;
17363;SDS011;8799;43.594;13.526;2023-05-23T08:52:18;8.23;;;5.97;;
17363;SDS011;8799;43.594;13.526;2023-05-23T08:54:50;9.37;;;5.70;;
17363;SDS011;8799;43.594;13.526;2023-05-23T08:57:19;8.63;;;5.60;;
17363;SDS011;8799;43.594;13.526;2023-05-23T08:59:47;8.33;;;5.27;;
17363;SDS011;8799;43.594;13.526;2023-05-23T09:02:17;8.90;;;6.00;;
17363;SDS011;8799;43.594;13.526;2023-05-23T09:04:45;9.27;;;5.87;;
17363;SDS011;8799;43.594;13.526;2023-05-23T09:07:13;8.70;;;5.83;;
17363;SDS011;8799;43.594;13.526;2023-05-23T09:09:45;8.63;;;6.20;;
17363;SDS011;8799;43.594;13.526;2023-05-23T09:12:13;8.30;;;6.03;;
17363;SDS011;8799;43.594;13.526;2023-05-23T09:14:43;9.70;;;5.63;;
17363;SDS011;8799;43.594;13.526;2023-05-23T09:17:14;8.27;;;5.83;;
17363;SDS011;8799;43.594;13.526;2023-05-23T09:19:44;9.70;;;6.13;;
17363;SDS011;8799;43.594;13.526;2023-05-23T09:22:12;9.83;;;6.37;;
17363;SDS011;8799;43.594;13.526;2023-05-23T09:24:40;9.03;;;6.27;;
17363;SDS011;8799;43.594;13.526;2023-05-23T09:27:08;8.73;;;5.70;;
17363;SDS011;8799;43.594;13.526;2023-05-23T09:29:36;9.90;;;6.33;;
17363;SDS011;8799;43.594;13.526;2023-05-23T09:32:15;11.17;;;6.20;;
17363;SDS011;8799;43.594;13.526;2023-05-23T09:34:52;9.07;;;6.13;;
17363;SDS011;8799;43.594;13.526;2023-05-23T09:37:23;8.43;;;6.37;;
17363;SDS011;8799;43.594;13.526;2023-05-23T09:39:57;9.00;;;5.70;;
17363;SDS011;8799;43.594;13.526;2023-05-23T09:42:25;9.77;;;6.27;;
17363;SDS011;8799;43.594;13.526;2023-05-23T09:44:58;9.20;;;6.30;;
17363;SDS011;8799;43.594;13.526;2023-05-23T09:47:28;12.27;;;6.73;;
17363;SDS011;8799;43.594;13.526;2023-05-23T09:49:56;11.60;;;6.53;;
17363;SDS011;8799;43.594;13.526;2023-05-23T09:52:24;9.00;;;6.13;;
17363;SDS011;8799;43.594;13.526;2023-05-23T09:54:52;11.27;;;5.93;;
17363;SDS011;8799;43.594;13.526;2023-05-23T09:57:20;10.87;;;6.73;;
17363;SDS011;8799;43.594;13.526;2023-05-23T09:59:51;10.07;;;6.20;;
17363;SDS011;8799;43.594;13.526;2023-05-23T10:05:35;10.07;;;7.07;;
17363;SDS011;8799;43.594;13.526;2023-05-23T10:08:07;10.27;;;6.73;;
17363;SDS011;8799;43.594;13.526;2023-05-23T10:10:52;9.80;;;6.57;;
17363;SDS011;8799;43.594;13.526;2023-05-23T10:13:55;10.33;;;6.67;;
17363;SDS011;8799;43.594;13.526;2023-05-23T10:16:26;9.70;;;6.70;;
17363;SDS011;8799;43.594;13.526;2023-05-23T10:19:00;9.80;;;6.60;;
17363;SDS011;8799;43.594;13.526;2023-05-23T10:21:34;11.30;;;6.87;;
17363;SDS011;8799;43.594;13.526;2023-05-23T10:24:11;9.53;;;6.67;;
17363;SDS011;8799;43.594;13.526;2023-05-23T10:26:40;9.73;;;6.70;;
17363;SDS011;8799;43.594;13.526;2023-05-23T10:29:09;10.43;;;6.67;;
17363;SDS011;8799;43.594;13.526;2023-05-23T10:31:37;11.80;;;7.33;;
17363;SDS011;8799;43.594;13.526;2023-05-23T10:34:07;9.83;;;7.00;;
17363;SDS011;8799;43.594;13.526;2023-05-23T10:36:43;10.50;;;6.30;;
17363;SDS011;8799;43.594;13.526;2023-05-23T10:39:21;9.20;;;7.00;;
17363;SDS011;8799;43.594;13.526;2023-05-23T10:41:59;10.57;;;6.90;;
17363;SDS011;8799;43.594;13.526;2023-05-23T10:44:31;11.47;;;7.40;;
17363;SDS011;8799;43.594;13.526;2023-05-23T10:49:43;11.03;;;6.93;;
17363;SDS011;8799;43.594;13.526;2023-05-23T10:52:18;13.93;;;7.57;;
17363;SDS011;8799;43.594;13.526;2023-05-23T10:54:47;12.20;;;7.50;;
17363;SDS011;8799;43.594;13.526;2023-05-23T10:57:16;11.80;;;7.13;;
17363;SDS011;8799;43.594;13.526;2023-05-23T10:59:46;11.63;;;7.40;;
17363;SDS011;8799;43.594;13.526;2023-05-23T11:02:18;13.27;;;7.37;;
17363;SDS011;8799;43.594;13.526;2023-05-23T11:10:53;11.13;;;7.20;;
17363;SDS011;8799;43.594;13.526;2023-05-23T11:13:22;10.13;;;7.57;;
17363;SDS011;8799;43.594;13.526;2023-05-23T11:15:50;12.17;;;7.23;;
17363;SDS011;8799;43.594;13.526;2023-05-23T11:18:19;10.83;;;7.60;;
17363;SDS011;8799;43.594;13.526;2023-05-23T11:20:51;10.73;;;7.67;;
17363;SDS011;8799;43.594;13.526;2023-05-23T11:23:21;9.77;;;7.10;;
17363;SDS011;8799;43.594;13.526;2023-05-23T11:25:50;10.37;;;7.30;;
17363;SDS011;8799;43.594;13.526;2023-05-23T11:28:19;10.03;;;7.03;;
17363;SDS011;8799;43.594;13.526;2023-05-23T11:30:48;11.67;;;7.07;;
17363;SDS011;8799;43.594;13.526;2023-05-23T11:33:16;9.40;;;7.30;;
17363;SDS011;8799;43.594;13.526;2023-05-23T11:35:45;11.33;;;7.70;;
17363;SDS011;8799;43.594;13.526;2023-05-23T11:38:15;10.47;;;7.73;;
17363;SDS011;8799;43.594;13.526;2023-05-23T11:40:45;9.67;;;7.03;;
17363;SDS011;8799;43.594;13.526;2023-05-23T11:43:14;12.80;;;7.77;;
17363;SDS011;8799;43.594;13.526;2023-05-23T11:45:43;10.10;;;7.73;;
17363;SDS011;8799;43.594;13.526;2023-05-23T11:48:12;11.03;;;7.70;;
17363;SDS011;8799;43.594;13.526;2023-05-23T11:50:45;12.20;;;7.77;;
17363;SDS011;8799;43.594;13.526;2023-05-23T11:53:14;11.17;;;7.57;;
17363;SDS011;8799;43.594;13.526;2023-05-23T11:55:50;11.37;;;7.63;;
17363;SDS011;8799;43.594;13.526;2023-05-23T11:58:20;10.80;;;7.87;;
17363;SDS011;8799;43.594;13.526;2023-05-23T12:00:48;11.10;;;7.77;;
17363;SDS011;8799;43.594;13.526;2023-05-23T12:03:16;10.00;;;7.43;;
17363;SDS011;8799;43.594;13.526;2023-05-23T12:05:48;11.20;;;7.60;;
17363;SDS011;8799;43.594;13.526;2023-05-23T12:08:16;11.30;;;7.67;;
17363;SDS011;8799;43.594;13.526;2023-05-23T12:10:50;11.83;;;8.10;;
17363;SDS011;8799;43.594;13.526;2023-05-23T12:13:19;10.47;;;7.53;;
17363;SDS011;8799;43.594;13.526;2023-05-23T12:15:52;11.27;;;7.23;;
17363;SDS011;8799;43.594;13.526;2023-05-23T12:18:20;13.73;;;8.13;;
17363;SDS011;8799;43.594;13.526;2023-05-23T12:20:48;10.80;;;7.83;;
17363;SDS011;8799;43.594;13.526;2023-05-23T12:23:17;14.37;;;8.53;;
17363;SDS011;8799;43.594;13.526;2023-05-23T12:25:50;13.70;;;8.00;;
17363;SDS011;8799;43.594;13.526;2023-05-23T12:28:18;12.90;;;8.80;;
17363;SDS011;8799;43.594;13.526;2023-05-23T12:30:46;15.77;;;9.37;;
17363;SDS011;8799;43.594;13.526;2023-05-23T12:33:14;13.07;;;9.30;;
17363;SDS011;8799;43.594;13.526;2023-05-23T12:35:47;11.83;;;8.67;;
17363;SDS011;8799;43.594;13.526;2023-05-23T12:38:15;15.03;;;8.80;;
17363;SDS011;8799;43.594;13.526;2023-05-23T12:40:43;12.57;;;8.93;;
17363;SDS011;8799;43.594;13.526;2023-05-23T12:43:14;14.97;;;9.33;;
17363;SDS011;8799;43.594;13.526;2023-05-23T12:45:42;13.50;;;9.03;;
17363;SDS011;8799;43.594;13.526;2023-05-23T12:48:11;11.00;;;8.30;;
17363;SDS011;8799;43.594;13.526;2023-05-23T12:50:38;13.33;;;9.13;;
17363;SDS011;8799;43.594;13.526;2023-05-23T12:53:07;14.83;;;8.97;;
17363;SDS011;8799;43.594;13.526;2023-05-23T12:55:35;13.00;;;9.00;;
17363;SDS011;8799;43.594;13.526;2023-05-23T12:58:03;12.60;;;8.77;;
17363;SDS011;8799;43.594;13.526;2023-05-23T13:00:33;11.63;;;8.73;;
17363;SDS011;8799;43.594;13.526;2023-05-23T13:03:01;12.00;;;9.53;;
17363;SDS011;8799;43.594;13.526;2023-05-23T13:05:30;13.87;;;9.07;;
17363;SDS011;8799;43.594;13.526;2023-05-23T13:07:58;12.47;;;8.47;;
17363;SDS011;8799;43.594;13.526;2023-05-23T13:10:26;14.50;;;9.03;;
17363;SDS011;8799;43.594;13.526;2023-05-23T13:12:54;13.47;;;8.13;;
17363;SDS011;8799;43.594;13.526;2023-05-23T13:15:23;13.93;;;8.90;;
17363;SDS011;8799;43.594;13.526;2023-05-23T13:17:53;11.53;;;8.60;;
17363;SDS011;8799;43.594;13.526;2023-05-23T13:20:21;11.47;;;8.50;;
17363;SDS011;8799;43.594;13.526;2023-05-23T13:22:49;12.57;;;8.80;;
17363;SDS011;8799;43.594;13.526;2023-05-23T13:25:17;12.33;;;8.67;;
17363;SDS011;8799;43.594;13.526;2023-05-23T13:27:45;13.40;;;8.80;;
17363;SDS011;8799;43.594;13.526;2023-05-23T13:30:13;13.60;;;8.40;;
17363;SDS011;8799;43.594;13.526;2023-05-23T13:32:40;11.73;;;8.17;;
17363;SDS011;8799;43.594;13.526;2023-05-23T13:35:10;12.47;;;8.10;;
17363;SDS011;8799;43.594;13.526;2023-05-23T13:37:38;12.40;;;7.83;;
17363;SDS011;8799;43.594;13.526;2023-05-23T13:40:06;9.57;;;7.57;;
17363;SDS011;8799;43.594;13.526;2023-05-23T13:42:38;11.33;;;7.50;;
17363;SDS011;8799;43.594;13.526;2023-05-23T13:45:06;12.07;;;7.77;;
17363;SDS011;8799;43.594;13.526;2023-05-23T13:47:34;10.97;;;7.83;;
17363;SDS011;8799;43.594;13.526;2023-05-23T13:50:02;9.50;;;6.90;;
17363;SDS011;8799;43.594;13.526;2023-05-23T13:52:32;10.97;;;7.33;;
17363;SDS011;8799;43.594;13.526;2023-05-23T13:55:01;12.47;;;7.30;;
17363;SDS011;8799;43.594;13.526;2023-05-23T13:57:30;8.67;;;6.67;;
17363;SDS011;8799;43.594;13.526;2023-05-23T13:59:58;11.30;;;6.97;;
17363;SDS011;8799;43.594;13.526;2023-05-23T14:02:26;8.57;;;6.43;;
17363;SDS011;8799;43.594;13.526;2023-05-23T14:04:56;9.63;;;6.50;;
17363;SDS011;8799;43.594;13.526;2023-05-23T14:07:24;11.47;;;6.70;;
17363;SDS011;8799;43.594;13.526;2023-05-23T14:09:53;13.80;;;6.87;;
17363;SDS011;8799;43.594;13.526;2023-05-23T14:12:21;8.90;;;6.10;;
17363;SDS011;8799;43.594;13.526;2023-05-23T14:14:49;13.93;;;6.97;;
17363;SDS011;8799;43.594;13.526;2023-05-23T14:17:17;9.80;;;6.13;;
17363;SDS011;8799;43.594;13.526;2023-05-23T14:19:46;8.73;;;6.27;;
17363;SDS011;8799;43.594;13.526;2023-05-23T14:22:14;9.23;;;5.90;;
17363;SDS011;8799;43.594;13.526;2023-05-23T14:24:43;7.50;;;5.77;;
17363;SDS011;8799;43.594;13.526;2023-05-23T14:27:12;8.70;;;5.63;;
17363;SDS011;8799;43.594;13.526;2023-05-23T14:29:40;9.57;;;5.63;;
17363;SDS011;8799;43.594;13.526;2023-05-23T14:32:10;7.20;;;5.57;;
17363;SDS011;8799;43.594;13.526;2023-05-23T14:34:38;8.47;;;5.83;;
17363;SDS011;8799;43.594;13.526;2023-05-23T14:37:06;7.73;;;5.70;;
17363;SDS011;8799;43.594;13.526;2023-05-23T14:39:34;9.10;;;5.50;;
17363;SDS011;8799;43.594;13.526;2023-05-23T14:42:03;8.50;;;5.70;;
17363;SDS011;8799;43.594;13.526;2023-05-23T14:44:33;12.17;;;5.63;;
17363;SDS011;8799;43.594;13.526;2023-05-23T14:47:01;9.30;;;5.97;;
17363;SDS011;8799;43.594;13.526;2023-05-23T14:49:29;7.67;;;5.73;;
17363;SDS011;8799;43.594;13.526;2023-05-23T14:51:57;9.33;;;5.10;;
17363;SDS011;8799;43.594;13.526;2023-05-23T14:54:25;11.33;;;5.73;;
17363;SDS011;8799;43.594;13.526;2023-05-23T14:56:53;8.70;;;6.20;;
17363;SDS011;8799;43.594;13.526;2023-05-23T14:59:21;9.20;;;5.57;;
17363;SDS011;8799;43.594;13.526;2023-05-23T15:01:55;7.40;;;5.27;;
17363;SDS011;8799;43.594;13.526;2023-05-23T15:04:24;8.10;;;4.77;;
17363;SDS011;8799;43.594;13.526;2023-05-23T15:06:52;9.33;;;5.90;;
17363;SDS011;8799;43.594;13.526;2023-05-23T15:09:19;9.93;;;6.07;;